sensor_id;sensor_type;location;lat;lon;timestamp;P1;durP1;ratioP1;P2;durP2;ratioP2
3561;SDS011;1795;52.074;4.754;2022-09-16T00:01:00;5.05;;;1.08;;
3561;SDS011;1795;52.074;4.754;2022-09-16T00:03:35;8.90;;;1.40;;
3561;SDS011;1795;52.074;4.754;2022-09-16T00:06:05;8.88;;;1.60;;
3561;SDS011;1795;52.074;4.754;2022-09-16T00:08:33;4.72;;;1.40;;
3561;SDS011;1795;52.074;4.754;2022-09-16T00:11:01;5.13;;;1.50;;
3561;SDS011;1795;52.074;4.754;2022-09-16T00:13:29;2.25;;;1.15;;
3561;SDS011;1795;52.074;4.754;2022-09-16T00:15:57;5.20;;;1.40;;
3561;SDS011;1795;52.074;4.754;2022-09-16T00:18:25;4.88;;;1.50;;
3561;SDS011;1795;52.074;4.754;2022-09-16T00:20:53;5.22;;;1.40;;
3561;SDS011;1795;52.074;4.754;2022-09-16T00:23:22;3.10;;;0.90;;
3561;SDS011;1795;52.074;4.754;2022-09-16T00:25:50;4.90;;;1.30;;
3561;SDS011;1795;52.074;4.754;2022-09-16T00:28:19;4.80;;;1.00;;
3561;SDS011;1795;52.074;4.754;2022-09-16T00:30:48;3.40;;;1.10;;
3561;SDS011;1795;52.074;4.754;2022-09-16T00:33:16;2.58;;;0.95;;
3561;SDS011;1795;52.074;4.754;2022-09-16T00:35:44;3.97;;;1.40;;
3561;SDS011;1795;52.074;4.754;2022-09-16T00:38:13;3.58;;;1.27;;
3561;SDS011;1795;52.074;4.754;2022-09-16T00:40:45;4.40;;;1.40;;
3561;SDS011;1795;52.074;4.754;2022-09-16T00:43:15;4.07;;;1.20;;
3561;SDS011;1795;52.074;4.754;2022-09-16T00:45:46;3.80;;;0.90;;
3561;SDS011;1795;52.074;4.754;2022-09-16T00:48:18;6.25;;;1.30;;
3561;SDS011;1795;52.074;4.754;2022-09-16T00:50:50;3.20;;;1.00;;
3561;SDS011;1795;52.074;4.754;2022-09-16T00:53:23;7.85;;;1.30;;
3561;SDS011;1795;52.074;4.754;2022-09-16T00:55:57;5.93;;;1.65;;
3561;SDS011;1795;52.074;4.754;2022-09-16T00:58:29;3.33;;;1.00;;
3561;SDS011;1795;52.074;4.754;2022-09-16T01:03:47;4.20;;;1.00;;
3561;SDS011;1795;52.074;4.754;2022-09-16T01:06:17;2.70;;;1.00;;
3561;SDS011;1795;52.074;4.754;2022-09-16T01:08:45;3.40;;;1.10;;
3561;SDS011;1795;52.074;4.754;2022-09-16T01:11:18;6.72;;;1.58;;
3561;SDS011;1795;52.074;4.754;2022-09-16T01:13:45;5.00;;;1.20;;
3561;SDS011;1795;52.074;4.754;2022-09-16T01:16:15;3.28;;;1.10;;
3561;SDS011;1795;52.074;4.754;2022-09-16T01:18:51;3.47;;;1.10;;
3561;SDS011;1795;52.074;4.754;2022-09-16T01:21:29;3.33;;;0.90;;
3561;SDS011;1795;52.074;4.754;2022-09-16T01:33:11;2.90;;;1.00;;
3561;SDS011;1795;52.074;4.754;2022-09-16T01:35:52;2.83;;;0.95;;
3561;SDS011;1795;52.074;4.754;2022-09-16T01:38:37;7.43;;;1.10;;
3561;SDS011;1795;52.074;4.754;2022-09-16T01:41:16;3.35;;;1.00;;
3561;SDS011;1795;52.074;4.754;2022-09-16T01:43:50;4.15;;;0.90;;
3561;SDS011;1795;52.074;4.754;2022-09-16T01:46:29;6.43;;;1.48;;
3561;SDS011;1795;52.074;4.754;2022-09-16T01:49:06;3.20;;;1.10;;
3561;SDS011;1795;52.074;4.754;2022-09-16T01:51:40;4.68;;;1.05;;
3561;SDS011;1795;52.074;4.754;2022-09-16T01:54:16;2.20;;;0.90;;
3561;SDS011;1795;52.074;4.754;2022-09-16T01:56:51;4.35;;;1.10;;
3561;SDS011;1795;52.074;4.754;2022-09-16T01:59:27;4.40;;;1.00;;
3561;SDS011;1795;52.074;4.754;2022-09-16T02:02:03;2.17;;;0.90;;
3561;SDS011;1795;52.074;4.754;2022-09-16T02:04:37;5.18;;;1.20;;
3561;SDS011;1795;52.074;4.754;2022-09-16T02:07:09;4.78;;;1.00;;
3561;SDS011;1795;52.074;4.754;2022-09-16T02:09:41;5.60;;;1.00;;
3561;SDS011;1795;52.074;4.754;2022-09-16T02:12:15;3.47;;;1.30;;
3561;SDS011;1795;52.074;4.754;2022-09-16T02:14:48;3.95;;;0.93;;
3561;SDS011;1795;52.074;4.754;2022-09-16T02:17:21;4.05;;;1.05;;
3561;SDS011;1795;52.074;4.754;2022-09-16T02:19:53;4.93;;;1.00;;
3561;SDS011;1795;52.074;4.754;2022-09-16T02:22:26;1.95;;;0.90;;
3561;SDS011;1795;52.074;4.754;2022-09-16T02:24:58;4.63;;;0.90;;
3561;SDS011;1795;52.074;4.754;2022-09-16T02:27:29;4.70;;;0.90;;
3561;SDS011;1795;52.074;4.754;2022-09-16T02:29:59;5.03;;;1.10;;
3561;SDS011;1795;52.074;4.754;2022-09-16T02:32:32;5.40;;;1.60;;
3561;SDS011;1795;52.074;4.754;2022-09-16T02:35:04;6.47;;;1.05;;
3561;SDS011;1795;52.074;4.754;2022-09-16T02:37:37;5.40;;;1.10;;
3561;SDS011;1795;52.074;4.754;2022-09-16T02:40:10;6.43;;;1.00;;
3561;SDS011;1795;52.074;4.754;2022-09-16T02:42:42;3.15;;;1.00;;
3561;SDS011;1795;52.074;4.754;2022-09-16T02:45:10;4.55;;;1.00;;
3561;SDS011;1795;52.074;4.754;2022-09-16T02:47:41;5.22;;;1.25;;
3561;SDS011;1795;52.074;4.754;2022-09-16T02:50:16;5.20;;;1.00;;
3561;SDS011;1795;52.074;4.754;2022-09-16T02:52:54;3.25;;;0.95;;
3561;SDS011;1795;52.074;4.754;2022-09-16T02:55:28;3.53;;;0.80;;
3561;SDS011;1795;52.074;4.754;2022-09-16T02:58:03;5.05;;;1.02;;
3561;SDS011;1795;52.074;4.754;2022-09-16T03:00:31;3.20;;;1.00;;
3561;SDS011;1795;52.074;4.754;2022-09-16T03:03:04;3.22;;;0.90;;
3561;SDS011;1795;52.074;4.754;2022-09-16T03:05:33;5.05;;;1.15;;
3561;SDS011;1795;52.074;4.754;2022-09-16T03:08:01;6.03;;;1.00;;
3561;SDS011;1795;52.074;4.754;2022-09-16T03:10:34;5.03;;;0.90;;
3561;SDS011;1795;52.074;4.754;2022-09-16T03:13:10;2.90;;;1.30;;
3561;SDS011;1795;52.074;4.754;2022-09-16T03:15:49;4.60;;;1.35;;
3561;SDS011;1795;52.074;4.754;2022-09-16T03:18:39;3.17;;;1.00;;
3561;SDS011;1795;52.074;4.754;2022-09-16T03:21:28;6.00;;;1.17;;
3561;SDS011;1795;52.074;4.754;2022-09-16T03:24:02;5.15;;;1.30;;
3561;SDS011;1795;52.074;4.754;2022-09-16T03:26:39;3.78;;;1.00;;
3561;SDS011;1795;52.074;4.754;2022-09-16T03:29:15;5.20;;;0.80;;
3561;SDS011;1795;52.074;4.754;2022-09-16T03:31:46;6.33;;;1.20;;
3561;SDS011;1795;52.074;4.754;2022-09-16T03:34:21;2.50;;;0.80;;
3561;SDS011;1795;52.074;4.754;2022-09-16T03:36:55;1.83;;;0.90;;
3561;SDS011;1795;52.074;4.754;2022-09-16T03:39:25;2.90;;;1.00;;
3561;SDS011;1795;52.074;4.754;2022-09-16T03:41:54;1.70;;;1.00;;
3561;SDS011;1795;52.074;4.754;2022-09-16T03:44:31;2.50;;;0.90;;
3561;SDS011;1795;52.074;4.754;2022-09-16T03:46:59;2.08;;;0.70;;
3561;SDS011;1795;52.074;4.754;2022-09-16T03:49:29;3.60;;;0.90;;
3561;SDS011;1795;52.074;4.754;2022-09-16T03:51:57;2.30;;;0.90;;
3561;SDS011;1795;52.074;4.754;2022-09-16T03:54:26;2.70;;;0.82;;
3561;SDS011;1795;52.074;4.754;2022-09-16T03:56:54;1.95;;;0.80;;
3561;SDS011;1795;52.074;4.754;2022-09-16T03:59:22;5.18;;;1.75;;
3561;SDS011;1795;52.074;4.754;2022-09-16T04:01:50;2.00;;;0.90;;
3561;SDS011;1795;52.074;4.754;2022-09-16T04:04:18;2.20;;;0.90;;
3561;SDS011;1795;52.074;4.754;2022-09-16T04:06:47;2.40;;;0.80;;
3561;SDS011;1795;52.074;4.754;2022-09-16T04:09:15;3.17;;;0.80;;
3561;SDS011;1795;52.074;4.754;2022-09-16T04:11:43;2.33;;;0.80;;
3561;SDS011;1795;52.074;4.754;2022-09-16T04:14:11;2.97;;;1.00;;
3561;SDS011;1795;52.074;4.754;2022-09-16T04:16:40;3.67;;;1.00;;
3561;SDS011;1795;52.074;4.754;2022-09-16T04:19:11;2.40;;;1.00;;
3561;SDS011;1795;52.074;4.754;2022-09-16T04:21:40;2.80;;;0.90;;
3561;SDS011;1795;52.074;4.754;2022-09-16T04:24:10;2.38;;;0.90;;
3561;SDS011;1795;52.074;4.754;2022-09-16T04:26:39;2.13;;;0.80;;
3561;SDS011;1795;52.074;4.754;2022-09-16T04:29:07;3.17;;;1.00;;
3561;SDS011;1795;52.074;4.754;2022-09-16T04:31:35;1.40;;;1.00;;
3561;SDS011;1795;52.074;4.754;2022-09-16T04:34:03;3.63;;;0.93;;
3561;SDS011;1795;52.074;4.754;2022-09-16T04:36:31;3.33;;;1.13;;
3561;SDS011;1795;52.074;4.754;2022-09-16T04:38:59;1.73;;;1.00;;
3561;SDS011;1795;52.074;4.754;2022-09-16T04:41:29;4.45;;;1.58;;
3561;SDS011;1795;52.074;4.754;2022-09-16T04:43:57;2.17;;;0.90;;
3561;SDS011;1795;52.074;4.754;2022-09-16T04:46:27;2.80;;;0.90;;
3561;SDS011;1795;52.074;4.754;2022-09-16T04:48:56;2.63;;;1.00;;
3561;SDS011;1795;52.074;4.754;2022-09-16T04:51:25;2.47;;;1.00;;
3561;SDS011;1795;52.074;4.754;2022-09-16T04:53:54;3.05;;;0.90;;
3561;SDS011;1795;52.074;4.754;2022-09-16T04:56:23;3.03;;;1.30;;
3561;SDS011;1795;52.074;4.754;2022-09-16T04:58:54;2.25;;;0.93;;
3561;SDS011;1795;52.074;4.754;2022-09-16T05:01:26;1.75;;;0.82;;
3561;SDS011;1795;52.074;4.754;2022-09-16T05:03:56;4.50;;;0.90;;
3561;SDS011;1795;52.074;4.754;2022-09-16T05:06:26;4.13;;;1.10;;
3561;SDS011;1795;52.074;4.754;2022-09-16T05:08:55;3.10;;;1.20;;
3561;SDS011;1795;52.074;4.754;2022-09-16T05:11:24;1.90;;;0.90;;
3561;SDS011;1795;52.074;4.754;2022-09-16T05:13:56;3.35;;;0.90;;
3561;SDS011;1795;52.074;4.754;2022-09-16T05:16:24;4.60;;;1.00;;
3561;SDS011;1795;52.074;4.754;2022-09-16T05:18:53;3.20;;;1.35;;
3561;SDS011;1795;52.074;4.754;2022-09-16T05:21:23;4.15;;;0.90;;
3561;SDS011;1795;52.074;4.754;2022-09-16T05:23:52;3.10;;;1.10;;
3561;SDS011;1795;52.074;4.754;2022-09-16T05:26:22;2.28;;;0.90;;
3561;SDS011;1795;52.074;4.754;2022-09-16T05:28:51;7.88;;;1.30;;
3561;SDS011;1795;52.074;4.754;2022-09-16T05:31:21;2.50;;;0.98;;
3561;SDS011;1795;52.074;4.754;2022-09-16T05:33:53;4.32;;;1.00;;
3561;SDS011;1795;52.074;4.754;2022-09-16T05:36:22;2.65;;;1.00;;
3561;SDS011;1795;52.074;4.754;2022-09-16T05:38:51;4.90;;;1.00;;
3561;SDS011;1795;52.074;4.754;2022-09-16T05:41:39;3.17;;;1.05;;
3561;SDS011;1795;52.074;4.754;2022-09-16T05:44:07;2.47;;;1.20;;
3561;SDS011;1795;52.074;4.754;2022-09-16T05:46:36;3.00;;;1.00;;
3561;SDS011;1795;52.074;4.754;2022-09-16T05:49:05;3.13;;;1.20;;
3561;SDS011;1795;52.074;4.754;2022-09-16T05:51:35;3.80;;;1.00;;
3561;SDS011;1795;52.074;4.754;2022-09-16T05:54:03;4.90;;;1.30;;
3561;SDS011;1795;52.074;4.754;2022-09-16T05:56:32;2.65;;;0.90;;
3561;SDS011;1795;52.074;4.754;2022-09-16T05:59:00;4.68;;;1.40;;
3561;SDS011;1795;52.074;4.754;2022-09-16T06:01:30;5.00;;;1.10;;
3561;SDS011;1795;52.074;4.754;2022-09-16T06:04:00;3.22;;;1.00;;
3561;SDS011;1795;52.074;4.754;2022-09-16T06:06:30;3.20;;;1.38;;
3561;SDS011;1795;52.074;4.754;2022-09-16T06:09:00;1.50;;;1.13;;
3561;SDS011;1795;52.074;4.754;2022-09-16T06:11:34;5.60;;;1.30;;
3561;SDS011;1795;52.074;4.754;2022-09-16T06:14:03;1.55;;;0.90;;
3561;SDS011;1795;52.074;4.754;2022-09-16T06:16:31;2.70;;;1.30;;
3561;SDS011;1795;52.074;4.754;2022-09-16T06:19:02;3.38;;;1.30;;
3561;SDS011;1795;52.074;4.754;2022-09-16T06:21:31;1.92;;;0.98;;
3561;SDS011;1795;52.074;4.754;2022-09-16T06:23:59;4.82;;;1.20;;
3561;SDS011;1795;52.074;4.754;2022-09-16T06:26:28;2.83;;;1.20;;
3561;SDS011;1795;52.074;4.754;2022-09-16T06:28:56;3.50;;;1.20;;
3561;SDS011;1795;52.074;4.754;2022-09-16T06:31:25;1.93;;;1.10;;
3561;SDS011;1795;52.074;4.754;2022-09-16T06:33:54;1.95;;;1.00;;
3561;SDS011;1795;52.074;4.754;2022-09-16T06:36:26;3.08;;;1.05;;
3561;SDS011;1795;52.074;4.754;2022-09-16T06:38:55;3.22;;;1.30;;
3561;SDS011;1795;52.074;4.754;2022-09-16T06:41:23;5.88;;;1.30;;
3561;SDS011;1795;52.074;4.754;2022-09-16T06:43:51;5.35;;;1.10;;
3561;SDS011;1795;52.074;4.754;2022-09-16T06:46:20;3.47;;;1.02;;
3561;SDS011;1795;52.074;4.754;2022-09-16T06:48:50;3.33;;;1.10;;
3561;SDS011;1795;52.074;4.754;2022-09-16T06:51:19;2.45;;;1.10;;
3561;SDS011;1795;52.074;4.754;2022-09-16T06:53:50;3.08;;;1.10;;
3561;SDS011;1795;52.074;4.754;2022-09-16T06:56:21;5.13;;;1.10;;
3561;SDS011;1795;52.074;4.754;2022-09-16T06:58:49;4.35;;;1.20;;
3561;SDS011;1795;52.074;4.754;2022-09-16T07:01:18;2.17;;;1.20;;
3561;SDS011;1795;52.074;4.754;2022-09-16T07:03:48;2.80;;;1.00;;
3561;SDS011;1795;52.074;4.754;2022-09-16T07:06:17;2.10;;;0.80;;
3561;SDS011;1795;52.074;4.754;2022-09-16T07:08:46;3.63;;;1.20;;
3561;SDS011;1795;52.074;4.754;2022-09-16T07:11:17;5.43;;;1.30;;
3561;SDS011;1795;52.074;4.754;2022-09-16T07:13:46;3.60;;;1.10;;
3561;SDS011;1795;52.074;4.754;2022-09-16T07:16:16;4.25;;;1.00;;
3561;SDS011;1795;52.074;4.754;2022-09-16T07:18:45;3.30;;;1.20;;
3561;SDS011;1795;52.074;4.754;2022-09-16T07:21:14;2.30;;;1.10;;
3561;SDS011;1795;52.074;4.754;2022-09-16T07:23:44;5.87;;;1.40;;
3561;SDS011;1795;52.074;4.754;2022-09-16T07:26:13;3.20;;;1.23;;
3561;SDS011;1795;52.074;4.754;2022-09-16T07:28:44;3.40;;;1.00;;
3561;SDS011;1795;52.074;4.754;2022-09-16T07:31:13;5.03;;;1.27;;
3561;SDS011;1795;52.074;4.754;2022-09-16T07:33:44;4.28;;;1.40;;
3561;SDS011;1795;52.074;4.754;2022-09-16T07:36:14;6.10;;;1.20;;
3561;SDS011;1795;52.074;4.754;2022-09-16T07:38:43;4.55;;;1.30;;
3561;SDS011;1795;52.074;4.754;2022-09-16T07:41:12;5.68;;;1.30;;
3561;SDS011;1795;52.074;4.754;2022-09-16T07:43:41;3.95;;;1.10;;
3561;SDS011;1795;52.074;4.754;2022-09-16T07:46:12;3.13;;;1.30;;
3561;SDS011;1795;52.074;4.754;2022-09-16T07:48:43;4.07;;;1.00;;
3561;SDS011;1795;52.074;4.754;2022-09-16T07:51:14;1.90;;;0.93;;
3561;SDS011;1795;52.074;4.754;2022-09-16T07:53:44;3.13;;;1.00;;
3561;SDS011;1795;52.074;4.754;2022-09-16T07:56:13;2.60;;;1.02;;
3561;SDS011;1795;52.074;4.754;2022-09-16T07:58:44;4.70;;;1.10;;
3561;SDS011;1795;52.074;4.754;2022-09-16T08:01:13;6.88;;;1.10;;
3561;SDS011;1795;52.074;4.754;2022-09-16T08:03:43;5.95;;;1.35;;
3561;SDS011;1795;52.074;4.754;2022-09-16T08:06:12;2.28;;;1.05;;
3561;SDS011;1795;52.074;4.754;2022-09-16T08:08:42;2.85;;;1.30;;
3561;SDS011;1795;52.074;4.754;2022-09-16T08:11:11;3.10;;;0.90;;
3561;SDS011;1795;52.074;4.754;2022-09-16T08:13:40;4.15;;;1.10;;
3561;SDS011;1795;52.074;4.754;2022-09-16T08:16:11;2.85;;;0.90;;
3561;SDS011;1795;52.074;4.754;2022-09-16T08:18:40;2.20;;;0.90;;
3561;SDS011;1795;52.074;4.754;2022-09-16T08:21:10;2.25;;;0.70;;
3561;SDS011;1795;52.074;4.754;2022-09-16T08:23:40;2.10;;;1.30;;
3561;SDS011;1795;52.074;4.754;2022-09-16T08:26:09;4.30;;;1.08;;
3561;SDS011;1795;52.074;4.754;2022-09-16T08:28:39;4.88;;;1.00;;
3561;SDS011;1795;52.074;4.754;2022-09-16T08:31:30;7.05;;;1.05;;
3561;SDS011;1795;52.074;4.754;2022-09-16T08:33:58;6.43;;;1.17;;
3561;SDS011;1795;52.074;4.754;2022-09-16T08:36:25;5.80;;;1.00;;
3561;SDS011;1795;52.074;4.754;2022-09-16T08:38:54;6.90;;;1.40;;
3561;SDS011;1795;52.074;4.754;2022-09-16T08:41:24;7.53;;;1.65;;
3561;SDS011;1795;52.074;4.754;2022-09-16T08:44:02;6.45;;;1.20;;
3561;SDS011;1795;52.074;4.754;2022-09-16T08:46:41;6.78;;;1.90;;
3561;SDS011;1795;52.074;4.754;2022-09-16T08:49:16;6.82;;;1.58;;
3561;SDS011;1795;52.074;4.754;2022-09-16T08:51:47;5.38;;;1.30;;
3561;SDS011;1795;52.074;4.754;2022-09-16T08:54:20;9.27;;;1.67;;
3561;SDS011;1795;52.074;4.754;2022-09-16T08:56:54;5.27;;;1.40;;
3561;SDS011;1795;52.074;4.754;2022-09-16T08:59:27;3.60;;;1.25;;
3561;SDS011;1795;52.074;4.754;2022-09-16T09:02:03;5.70;;;1.45;;
3561;SDS011;1795;52.074;4.754;2022-09-16T09:04:46;5.97;;;1.30;;
3561;SDS011;1795;52.074;4.754;2022-09-16T09:07:16;2.80;;;1.05;;
3561;SDS011;1795;52.074;4.754;2022-09-16T09:09:52;5.13;;;1.10;;
3561;SDS011;1795;52.074;4.754;2022-09-16T09:12:36;8.45;;;1.70;;
3561;SDS011;1795;52.074;4.754;2022-09-16T09:15:13;4.32;;;1.20;;
3561;SDS011;1795;52.074;4.754;2022-09-16T09:17:57;7.15;;;1.10;;
3561;SDS011;1795;52.074;4.754;2022-09-16T09:20:43;5.93;;;1.20;;
3561;SDS011;1795;52.074;4.754;2022-09-16T09:23:19;5.05;;;1.20;;
3561;SDS011;1795;52.074;4.754;2022-09-16T09:26:01;3.40;;;1.20;;
3561;SDS011;1795;52.074;4.754;2022-09-16T09:28:43;2.80;;;1.00;;
3561;SDS011;1795;52.074;4.754;2022-09-16T09:31:27;5.07;;;0.95;;
3561;SDS011;1795;52.074;4.754;2022-09-16T09:34:02;2.30;;;1.00;;
3561;SDS011;1795;52.074;4.754;2022-09-16T09:36:44;5.53;;;1.15;;
3561;SDS011;1795;52.074;4.754;2022-09-16T09:39:24;2.58;;;0.90;;
3561;SDS011;1795;52.074;4.754;2022-09-16T09:42:04;2.67;;;0.88;;
3561;SDS011;1795;52.074;4.754;2022-09-16T09:44:45;3.85;;;1.10;;
3561;SDS011;1795;52.074;4.754;2022-09-16T09:47:18;3.47;;;1.10;;
3561;SDS011;1795;52.074;4.754;2022-09-16T09:49:52;6.10;;;1.20;;
3561;SDS011;1795;52.074;4.754;2022-09-16T09:52:25;4.70;;;0.90;;
3561;SDS011;1795;52.074;4.754;2022-09-16T09:54:58;6.55;;;1.30;;
3561;SDS011;1795;52.074;4.754;2022-09-16T09:57:34;7.00;;;1.20;;
3561;SDS011;1795;52.074;4.754;2022-09-16T10:00:10;7.57;;;1.13;;
3561;SDS011;1795;52.074;4.754;2022-09-16T10:02:42;3.00;;;0.98;;
3561;SDS011;1795;52.074;4.754;2022-09-16T10:05:18;7.63;;;1.42;;
3561;SDS011;1795;52.074;4.754;2022-09-16T10:07:48;6.27;;;1.57;;
3561;SDS011;1795;52.074;4.754;2022-09-16T10:10:20;3.25;;;1.05;;
3561;SDS011;1795;52.074;4.754;2022-09-16T10:12:50;4.45;;;1.30;;
3561;SDS011;1795;52.074;4.754;2022-09-16T10:15:19;4.25;;;1.20;;
3561;SDS011;1795;52.074;4.754;2022-09-16T10:17:48;2.60;;;0.90;;
3561;SDS011;1795;52.074;4.754;2022-09-16T10:20:24;5.22;;;1.45;;
3561;SDS011;1795;52.074;4.754;2022-09-16T10:22:56;4.53;;;1.30;;
3561;SDS011;1795;52.074;4.754;2022-09-16T10:25:37;4.10;;;1.00;;
3561;SDS011;1795;52.074;4.754;2022-09-16T10:28:16;5.18;;;1.20;;
3561;SDS011;1795;52.074;4.754;2022-09-16T10:30:46;3.97;;;0.93;;
3561;SDS011;1795;52.074;4.754;2022-09-16T10:33:20;5.10;;;1.20;;
3561;SDS011;1795;52.074;4.754;2022-09-16T10:35:52;3.92;;;1.33;;
3561;SDS011;1795;52.074;4.754;2022-09-16T10:38:23;4.07;;;1.20;;
3561;SDS011;1795;52.074;4.754;2022-09-16T10:41:01;4.80;;;1.20;;
3561;SDS011;1795;52.074;4.754;2022-09-16T10:43:34;5.25;;;1.40;;
3561;SDS011;1795;52.074;4.754;2022-09-16T10:46:04;2.88;;;1.02;;
3561;SDS011;1795;52.074;4.754;2022-09-16T10:48:34;5.95;;;1.00;;
3561;SDS011;1795;52.074;4.754;2022-09-16T10:51:04;2.80;;;1.00;;
3561;SDS011;1795;52.074;4.754;2022-09-16T10:53:50;3.47;;;1.10;;
3561;SDS011;1795;52.074;4.754;2022-09-16T10:56:20;5.18;;;1.10;;
3561;SDS011;1795;52.074;4.754;2022-09-16T10:59:00;4.78;;;1.00;;
3561;SDS011;1795;52.074;4.754;2022-09-16T11:01:31;4.30;;;1.38;;
3561;SDS011;1795;52.074;4.754;2022-09-16T11:04:13;3.90;;;1.10;;
3561;SDS011;1795;52.074;4.754;2022-09-16T11:07:08;7.35;;;1.27;;
3561;SDS011;1795;52.074;4.754;2022-09-16T11:09:46;1.80;;;0.90;;
3561;SDS011;1795;52.074;4.754;2022-09-16T11:12:30;5.38;;;1.30;;
3561;SDS011;1795;52.074;4.754;2022-09-16T11:15:12;3.20;;;1.10;;
3561;SDS011;1795;52.074;4.754;2022-09-16T11:17:54;5.80;;;1.10;;
3561;SDS011;1795;52.074;4.754;2022-09-16T11:20:36;2.32;;;0.84;;
3561;SDS011;1795;52.074;4.754;2022-09-16T11:23:15;6.25;;;1.20;;
3561;SDS011;1795;52.074;4.754;2022-09-16T11:25:52;3.67;;;1.13;;
3561;SDS011;1795;52.074;4.754;2022-09-16T11:28:34;5.40;;;1.10;;
3561;SDS011;1795;52.074;4.754;2022-09-16T11:31:27;6.87;;;1.40;;
3561;SDS011;1795;52.074;4.754;2022-09-16T11:34:04;4.20;;;1.50;;
3561;SDS011;1795;52.074;4.754;2022-09-16T11:36:41;4.13;;;1.10;;
3561;SDS011;1795;52.074;4.754;2022-09-16T11:39:23;7.90;;;1.40;;
3561;SDS011;1795;52.074;4.754;2022-09-16T11:42:03;8.93;;;1.80;;
3561;SDS011;1795;52.074;4.754;2022-09-16T11:44:38;6.00;;;1.30;;
3561;SDS011;1795;52.074;4.754;2022-09-16T11:47:17;9.07;;;2.00;;
3561;SDS011;1795;52.074;4.754;2022-09-16T11:50:19;9.07;;;1.90;;
3561;SDS011;1795;52.074;4.754;2022-09-16T11:53:03;13.25;;;2.17;;
3561;SDS011;1795;52.074;4.754;2022-09-16T11:56:00;5.72;;;1.60;;
3561;SDS011;1795;52.074;4.754;2022-09-16T11:58:32;12.00;;;1.98;;
3561;SDS011;1795;52.074;4.754;2022-09-16T12:01:07;8.85;;;1.80;;
3561;SDS011;1795;52.074;4.754;2022-09-16T12:03:43;7.25;;;1.80;;
3561;SDS011;1795;52.074;4.754;2022-09-16T12:06:17;10.57;;;1.70;;
3561;SDS011;1795;52.074;4.754;2022-09-16T12:08:51;10.10;;;1.50;;
3561;SDS011;1795;52.074;4.754;2022-09-16T12:11:25;9.60;;;2.47;;
3561;SDS011;1795;52.074;4.754;2022-09-16T12:14:00;8.55;;;1.85;;
3561;SDS011;1795;52.074;4.754;2022-09-16T12:16:36;12.13;;;2.25;;
3561;SDS011;1795;52.074;4.754;2022-09-16T12:19:09;6.90;;;2.70;;
3561;SDS011;1795;52.074;4.754;2022-09-16T12:21:43;9.75;;;1.90;;
3561;SDS011;1795;52.074;4.754;2022-09-16T12:24:16;6.50;;;1.80;;
3561;SDS011;1795;52.074;4.754;2022-09-16T12:26:51;8.95;;;2.45;;
3561;SDS011;1795;52.074;4.754;2022-09-16T12:29:25;7.05;;;2.20;;
3561;SDS011;1795;52.074;4.754;2022-09-16T12:31:59;7.05;;;2.10;;
3561;SDS011;1795;52.074;4.754;2022-09-16T12:34:32;12.07;;;2.00;;
3561;SDS011;1795;52.074;4.754;2022-09-16T12:37:06;11.73;;;2.17;;
3561;SDS011;1795;52.074;4.754;2022-09-16T12:39:41;9.13;;;1.88;;
3561;SDS011;1795;52.074;4.754;2022-09-16T12:48:25;7.25;;;1.90;;
3561;SDS011;1795;52.074;4.754;2022-09-16T12:51:19;9.35;;;1.92;;
3561;SDS011;1795;52.074;4.754;2022-09-16T12:54:04;7.95;;;1.77;;
3561;SDS011;1795;52.074;4.754;2022-09-16T12:57:33;8.23;;;1.70;;
3561;SDS011;1795;52.074;4.754;2022-09-16T13:00:10;8.52;;;1.80;;
3561;SDS011;1795;52.074;4.754;2022-09-16T13:02:43;10.50;;;1.50;;
3561;SDS011;1795;52.074;4.754;2022-09-16T13:05:18;10.43;;;1.80;;
3561;SDS011;1795;52.074;4.754;2022-09-16T13:07:54;9.80;;;1.77;;
3561;SDS011;1795;52.074;4.754;2022-09-16T13:10:26;7.00;;;1.88;;
3561;SDS011;1795;52.074;4.754;2022-09-16T13:13:18;7.70;;;1.80;;
3561;SDS011;1795;52.074;4.754;2022-09-16T13:15:53;5.97;;;1.60;;
3561;SDS011;1795;52.074;4.754;2022-09-16T13:18:24;9.55;;;1.73;;
3561;SDS011;1795;52.074;4.754;2022-09-16T13:21:06;5.95;;;1.40;;
3561;SDS011;1795;52.074;4.754;2022-09-16T13:23:52;7.97;;;1.35;;
3561;SDS011;1795;52.074;4.754;2022-09-16T13:26:36;9.20;;;1.90;;
3561;SDS011;1795;52.074;4.754;2022-09-16T13:32:04;7.40;;;1.52;;
3561;SDS011;1795;52.074;4.754;2022-09-16T13:35:02;7.45;;;1.40;;
3561;SDS011;1795;52.074;4.754;2022-09-16T13:37:32;5.10;;;1.38;;
3561;SDS011;1795;52.074;4.754;2022-09-16T13:40:16;7.85;;;1.40;;
3561;SDS011;1795;52.074;4.754;2022-09-16T13:42:46;8.93;;;1.47;;
3561;SDS011;1795;52.074;4.754;2022-09-16T13:45:30;6.78;;;1.80;;
3561;SDS011;1795;52.074;4.754;2022-09-16T13:48:00;4.23;;;1.50;;
3561;SDS011;1795;52.074;4.754;2022-09-16T13:50:36;10.55;;;2.20;;
3561;SDS011;1795;52.074;4.754;2022-09-16T13:53:08;10.43;;;1.60;;
3561;SDS011;1795;52.074;4.754;2022-09-16T13:55:42;10.80;;;1.77;;
3561;SDS011;1795;52.074;4.754;2022-09-16T13:58:15;5.97;;;1.75;;
3561;SDS011;1795;52.074;4.754;2022-09-16T14:00:52;9.48;;;1.70;;
3561;SDS011;1795;52.074;4.754;2022-09-16T14:06:23;10.07;;;1.70;;
3561;SDS011;1795;52.074;4.754;2022-09-16T14:12:02;9.13;;;2.03;;
3561;SDS011;1795;52.074;4.754;2022-09-16T14:14:39;6.43;;;1.45;;
3561;SDS011;1795;52.074;4.754;2022-09-16T14:17:14;5.05;;;1.17;;
3561;SDS011;1795;52.074;4.754;2022-09-16T14:19:45;10.02;;;2.10;;
3561;SDS011;1795;52.074;4.754;2022-09-16T14:22:15;7.50;;;1.80;;
3561;SDS011;1795;52.074;4.754;2022-09-16T14:24:48;8.80;;;1.63;;
3561;SDS011;1795;52.074;4.754;2022-09-16T14:27:32;5.55;;;1.58;;
3561;SDS011;1795;52.074;4.754;2022-09-16T14:30:05;5.90;;;1.37;;
3561;SDS011;1795;52.074;4.754;2022-09-16T14:32:40;6.47;;;1.50;;
3561;SDS011;1795;52.074;4.754;2022-09-16T14:35:08;7.22;;;1.55;;
3561;SDS011;1795;52.074;4.754;2022-09-16T14:37:38;8.10;;;1.80;;
3561;SDS011;1795;52.074;4.754;2022-09-16T14:40:11;10.37;;;1.70;;
3561;SDS011;1795;52.074;4.754;2022-09-16T14:42:43;6.93;;;1.50;;
3561;SDS011;1795;52.074;4.754;2022-09-16T14:45:15;6.63;;;1.40;;
3561;SDS011;1795;52.074;4.754;2022-09-16T14:47:43;7.27;;;1.67;;
3561;SDS011;1795;52.074;4.754;2022-09-16T14:50:18;8.20;;;1.60;;
3561;SDS011;1795;52.074;4.754;2022-09-16T14:52:53;4.82;;;1.40;;
3561;SDS011;1795;52.074;4.754;2022-09-16T14:55:25;6.60;;;1.65;;
3561;SDS011;1795;52.074;4.754;2022-09-16T14:57:55;7.88;;;1.83;;
3561;SDS011;1795;52.074;4.754;2022-09-16T15:00:23;6.70;;;1.38;;
3561;SDS011;1795;52.074;4.754;2022-09-16T15:02:59;8.20;;;2.33;;
3561;SDS011;1795;52.074;4.754;2022-09-16T15:05:32;8.38;;;1.65;;
3561;SDS011;1795;52.074;4.754;2022-09-16T15:08:05;8.43;;;1.70;;
3561;SDS011;1795;52.074;4.754;2022-09-16T15:10:43;10.07;;;2.40;;
3561;SDS011;1795;52.074;4.754;2022-09-16T15:13:34;6.20;;;1.80;;
3561;SDS011;1795;52.074;4.754;2022-09-16T15:16:07;11.68;;;2.40;;
3561;SDS011;1795;52.074;4.754;2022-09-16T15:18:37;8.37;;;1.83;;
3561;SDS011;1795;52.074;4.754;2022-09-16T15:21:07;6.95;;;1.65;;
3561;SDS011;1795;52.074;4.754;2022-09-16T15:23:37;8.52;;;1.40;;
3561;SDS011;1795;52.074;4.754;2022-09-16T15:26:11;5.82;;;1.63;;
3561;SDS011;1795;52.074;4.754;2022-09-16T15:28:54;6.22;;;1.80;;
3561;SDS011;1795;52.074;4.754;2022-09-16T15:31:31;5.60;;;1.75;;
3561;SDS011;1795;52.074;4.754;2022-09-16T15:34:03;8.57;;;1.67;;
3561;SDS011;1795;52.074;4.754;2022-09-16T15:36:46;12.55;;;2.20;;
3561;SDS011;1795;52.074;4.754;2022-09-16T15:39:20;10.75;;;2.30;;
3561;SDS011;1795;52.074;4.754;2022-09-16T15:42:02;6.72;;;1.70;;
3561;SDS011;1795;52.074;4.754;2022-09-16T15:44:37;7.03;;;1.80;;
3561;SDS011;1795;52.074;4.754;2022-09-16T15:47:16;10.70;;;2.00;;
3561;SDS011;1795;52.074;4.754;2022-09-16T15:49:47;9.38;;;2.50;;
3561;SDS011;1795;52.074;4.754;2022-09-16T15:52:33;5.17;;;1.60;;
3561;SDS011;1795;52.074;4.754;2022-09-16T15:55:23;5.60;;;1.60;;
3561;SDS011;1795;52.074;4.754;2022-09-16T15:57:58;6.30;;;1.60;;
3561;SDS011;1795;52.074;4.754;2022-09-16T16:00:31;6.07;;;1.60;;
3561;SDS011;1795;52.074;4.754;2022-09-16T16:03:23;6.38;;;1.70;;
3561;SDS011;1795;52.074;4.754;2022-09-16T16:05:52;8.05;;;1.75;;
3561;SDS011;1795;52.074;4.754;2022-09-16T16:08:37;4.40;;;1.45;;
3561;SDS011;1795;52.074;4.754;2022-09-16T16:11:11;8.63;;;1.70;;
3561;SDS011;1795;52.074;4.754;2022-09-16T16:13:41;7.30;;;1.80;;
3561;SDS011;1795;52.074;4.754;2022-09-16T16:16:10;6.07;;;1.70;;
3561;SDS011;1795;52.074;4.754;2022-09-16T16:18:39;11.63;;;1.85;;
3561;SDS011;1795;52.074;4.754;2022-09-16T16:21:09;6.97;;;1.80;;